Terminal Aerodrome Forecast
Issued by NWS

Current Version | Previous Version | Text Only | Print | Product List | Glossary On
Versions: 1 2 3 4 5 6 7 8 9 10 11 12 13 14 15 16 17 18
000
FTUS45 KSLC 221752 AAA
TAFSGU
TAF AMD
KSGU 221752Z 2218/2318 16005KT P6SM BKN150
     FM222000 23010G16KT P6SM VCSH SCT060 BKN100
     FM230300 16006KT P6SM -SHRA SCT060 BKN090
     FM230700 18008KT P6SM VCSH SCT060 BKN090=

USA.gov is the U.S. government's official web portal to all federal, state and local government web resources and services.